createdAt,value
2018-09-18T05:29:01.589Z,963.80
2018-09-18T05:30:01.556Z,963.76
2018-09-18T05:31:54.420Z,963.79
2018-09-18T05:32:54.132Z,963.84
2018-09-18T05:34:47.756Z,963.85
2018-09-18T05:35:47.772Z,963.83
2018-09-18T05:37:40.643Z,963.81
2018-09-18T05:38:40.367Z,963.85
2018-09-18T05:40:34.067Z,963.86
2018-09-18T05:41:34.471Z,963.80
2018-09-18T05:43:26.421Z,963.75
2018-09-18T05:44:26.935Z,963.81
2018-09-18T05:46:19.277Z,963.83
2018-09-18T05:47:20.283Z,963.83
2018-09-18T05:49:13.085Z,963.85
2018-09-18T05:50:13.093Z,963.85
2018-09-18T05:52:06.905Z,963.83
2018-09-18T05:53:07.019Z,963.84
2018-09-18T05:54:59.487Z,963.84
2018-09-18T05:55:59.475Z,963.81
2018-09-18T05:57:52.375Z,963.89
2018-09-18T05:58:53.361Z,963.86
2018-09-18T06:00:46.306Z,963.85
2018-09-18T06:01:45.814Z,963.94
2018-09-18T06:03:39.393Z,963.91
2018-09-18T06:04:39.267Z,963.94
2018-09-18T06:06:32.674Z,963.95
2018-09-18T06:07:32.701Z,963.95
2018-09-18T06:09:24.840Z,963.94
2018-09-18T06:10:26.054Z,963.92
2018-09-18T06:12:18.440Z,963.92
2018-09-18T06:13:19.881Z,963.94
2018-09-18T06:14:18.510Z,963.92
2018-09-18T06:15:18.393Z,963.92
2018-09-18T06:16:18.467Z,963.93
2018-09-18T06:17:18.201Z,963.95
2018-09-18T06:18:18.027Z,963.95
2018-09-18T06:19:18.184Z,963.94
2018-09-18T06:20:18.051Z,963.97
2018-09-18T06:21:18.074Z,963.95
2018-09-18T06:22:18.071Z,964.00
2018-09-18T06:23:18.047Z,963.98
2018-09-18T06:24:18.051Z,963.99
2018-09-18T06:25:18.099Z,963.99
2018-09-18T06:26:18.107Z,964.01
2018-09-18T06:27:18.051Z,964.05
2018-09-18T06:28:18.079Z,964.02
2018-09-18T06:29:18.064Z,964.00
2018-09-18T06:30:18.071Z,964.06
2018-09-18T06:31:18.069Z,964.02
2018-09-18T06:32:18.072Z,964.03
2018-09-18T06:33:18.072Z,964.00
2018-09-18T06:34:18.114Z,964.08
2018-09-18T06:35:18.116Z,964.01
2018-09-18T06:36:18.079Z,964.06
2018-09-18T06:37:18.083Z,964.11
2018-09-18T06:38:18.084Z,964.15
2018-09-18T06:39:18.089Z,964.18
2018-09-18T06:40:18.120Z,964.18
2018-09-18T06:41:18.114Z,964.24
2018-09-18T06:42:18.129Z,964.24
2018-09-18T06:43:18.108Z,964.30
2018-09-18T06:44:18.149Z,964.29
2018-09-18T06:45:18.120Z,964.34
2018-09-18T06:46:18.116Z,964.33
2018-09-18T06:47:18.126Z,964.36
2018-09-18T06:48:18.126Z,964.39
2018-09-18T06:49:18.132Z,964.32
2018-09-18T06:50:18.137Z,964.36
2018-09-18T06:51:18.146Z,964.39
2018-09-18T06:52:18.149Z,964.43
2018-09-18T06:53:18.154Z,964.40
2018-09-18T06:54:18.169Z,964.40
2018-09-18T06:55:18.187Z,964.51
2018-09-18T06:56:18.171Z,964.54
2018-09-18T06:57:18.177Z,964.56
2018-09-18T06:58:18.184Z,964.66
2018-09-18T06:59:18.190Z,964.76
2018-09-18T07:00:18.198Z,964.88
2018-09-18T07:01:18.233Z,965.01
2018-09-18T07:02:18.239Z,965.08
2018-09-18T07:03:18.212Z,965.14
2018-09-18T07:04:18.222Z,965.27
2018-09-18T07:05:18.227Z,965.52
2018-09-18T07:06:18.235Z,966.03
2018-09-18T07:07:18.244Z,966.40
2018-09-18T07:08:18.255Z,966.53
2018-09-18T07:09:18.259Z,966.66
2018-09-18T07:10:18.268Z,966.42
2018-09-18T07:11:18.275Z,965.94
2018-09-18T07:12:18.281Z,965.55
2018-09-18T07:13:18.290Z,965.35
2018-09-18T07:14:18.296Z,965.31
2018-09-18T07:15:18.305Z,965.21
2018-09-18T07:16:18.345Z,965.16
2018-09-18T07:17:18.326Z,965.07
2018-09-18T07:18:18.333Z,965.01
2018-09-18T07:19:18.340Z,965.09
2018-09-18T07:20:18.348Z,965.07
2018-09-18T07:21:18.404Z,965.07
2018-09-18T07:22:20.057Z,964.91
2018-09-18T07:23:18.373Z,964.93
2018-09-18T07:24:18.382Z,964.97
2018-09-18T07:25:18.391Z,964.94
2018-09-18T07:26:18.396Z,964.97
2018-09-18T07:27:18.407Z,964.94
2018-09-18T07:28:18.413Z,964.87
2018-09-18T07:29:18.473Z,964.87
2018-09-18T07:30:18.436Z,964.85
2018-09-18T07:31:18.460Z,964.86
2018-09-18T07:32:18.491Z,964.87
2018-09-18T07:33:18.463Z,964.90
2018-09-18T07:34:18.472Z,964.83
2018-09-18T07:35:18.538Z,964.86
2018-09-18T07:36:18.492Z,964.93
2018-09-18T07:37:18.503Z,964.99
2018-09-18T07:38:21.054Z,964.98
2018-09-18T07:39:18.518Z,964.96
2018-09-18T07:40:18.527Z,965.00
2018-09-18T07:41:18.536Z,965.03
2018-09-18T07:42:18.552Z,965.00
2018-09-18T07:43:18.560Z,964.99
2018-09-18T07:44:18.573Z,965.13
2018-09-18T07:45:18.589Z,965.19
2018-09-18T07:46:18.591Z,965.26
2018-09-18T07:47:18.600Z,965.40
2018-09-18T07:48:18.617Z,965.58
2018-09-18T07:49:18.625Z,965.73
2018-09-18T07:50:18.635Z,965.80
2018-09-18T07:51:18.652Z,965.68
2018-09-18T07:52:18.753Z,965.53
2018-09-18T07:53:18.668Z,965.32
2018-09-18T07:54:18.675Z,965.18
2018-09-18T07:55:18.692Z,964.98
2018-09-18T07:56:18.736Z,964.89
2018-09-18T07:57:18.708Z,964.87
2018-09-18T07:58:18.716Z,964.84
2018-09-18T07:59:18.730Z,964.85
2018-09-18T08:00:18.776Z,964.91
2018-09-18T08:01:18.754Z,965.24
2018-09-18T08:02:18.762Z,965.55
2018-09-18T08:03:18.851Z,965.73
2018-09-18T08:04:18.787Z,965.87
2018-09-18T08:05:18.805Z,966.00
2018-09-18T08:06:18.811Z,966.12
2018-09-18T08:07:18.821Z,966.30
2018-09-18T08:08:18.838Z,966.37
2018-09-18T08:09:18.848Z,966.34
2018-09-18T08:10:18.889Z,966.44
2018-09-18T08:11:18.872Z,966.44
2018-09-18T08:12:18.885Z,966.43
2018-09-18T08:13:18.898Z,966.49
2018-09-18T08:14:18.908Z,966.51
2018-09-18T08:15:18.923Z,966.50
2018-09-18T08:16:18.939Z,966.47
2018-09-18T08:17:18.947Z,966.51
2018-09-18T08:18:18.957Z,966.52
2018-09-18T08:19:19.031Z,966.59
2018-09-18T08:20:19.038Z,966.59
2018-09-18T08:21:19.002Z,966.51
2018-09-18T08:22:19.015Z,966.53
2018-09-18T08:23:19.028Z,966.59
2018-09-18T08:24:19.043Z,966.52
2018-09-18T08:25:19.151Z,966.59
2018-09-18T08:26:19.068Z,966.58
2018-09-18T08:27:19.083Z,966.52
2018-09-18T08:28:19.099Z,966.52
2018-09-18T08:29:19.111Z,966.50
2018-09-18T08:30:19.130Z,966.54
2018-09-18T08:31:19.140Z,966.53
2018-09-18T08:32:19.152Z,966.53
2018-09-18T08:33:19.169Z,966.58
2018-09-18T08:34:19.181Z,966.52
2018-09-18T08:35:19.202Z,966.49
2018-09-18T08:36:19.211Z,966.52
2018-09-18T08:37:19.229Z,966.45
2018-09-18T08:38:19.241Z,966.43
2018-09-18T08:39:19.253Z,966.55
2018-09-18T08:40:19.298Z,966.55
2018-09-18T08:41:19.299Z,966.59
2018-09-18T08:42:19.323Z,966.61
2018-09-18T08:43:19.319Z,966.66
2018-09-18T08:44:19.330Z,966.68
2018-09-18T08:45:19.345Z,966.60
2018-09-18T08:46:19.368Z,966.59
2018-09-18T08:47:19.390Z,966.61
2018-09-18T08:48:19.437Z,966.57
2018-09-18T08:49:19.425Z,966.53
2018-09-18T08:50:19.445Z,966.56
2018-09-18T08:51:19.431Z,966.50
2018-09-18T08:52:19.476Z,966.55
2018-09-18T08:53:19.473Z,966.51
2018-09-18T08:54:19.501Z,966.49
2018-09-18T08:55:19.499Z,966.46
2018-09-18T08:56:19.515Z,966.55
2018-09-18T08:57:19.556Z,966.54
2018-09-18T08:58:19.548Z,966.55
2018-09-18T08:59:19.584Z,966.63
2018-09-18T09:00:19.582Z,966.56
2018-09-18T09:01:19.607Z,966.54
2018-09-18T09:02:19.620Z,966.60
2018-09-18T09:03:19.651Z,966.68
2018-09-18T09:04:19.642Z,966.65
2018-09-18T09:05:19.675Z,966.68
2018-09-18T09:06:19.836Z,966.65
2018-09-18T09:07:19.711Z,966.63
2018-09-18T09:08:19.861Z,966.60
2018-09-18T09:09:19.810Z,966.62
2018-09-18T09:10:19.812Z,966.70
2018-09-18T09:11:19.760Z,966.65
2018-09-18T09:12:19.807Z,966.71
2018-09-18T09:13:19.790Z,966.75
2018-09-18T09:14:19.855Z,966.75
2018-09-18T09:15:19.828Z,966.70
2018-09-18T09:16:19.840Z,966.73
2018-09-18T09:17:19.862Z,966.66
2018-09-18T09:18:20.010Z,966.61
2018-09-18T09:19:19.892Z,966.74
2018-09-18T09:20:19.910Z,966.68
2018-09-18T09:21:20.048Z,966.62
2018-09-18T09:22:20.018Z,966.63
2018-09-18T09:23:19.965Z,966.61
2018-09-18T09:24:19.991Z,966.49
2018-09-18T09:25:19.998Z,966.43
2018-09-18T09:26:20.106Z,966.46
2018-09-18T09:27:20.035Z,966.50
2018-09-18T09:28:20.069Z,966.51
2018-09-18T09:29:20.112Z,966.45
2018-09-18T09:30:20.085Z,966.50
2018-09-18T09:31:20.135Z,966.59
2018-09-18T09:32:20.381Z,966.47
2018-09-18T09:33:20.139Z,966.44
2018-09-18T09:34:20.155Z,966.45
2018-09-18T09:35:20.174Z,966.44
2018-09-18T09:36:20.207Z,966.51
2018-09-18T09:37:20.249Z,966.44
2018-09-18T09:38:20.266Z,966.44
2018-09-18T09:39:20.247Z,966.51
2018-09-18T09:40:20.269Z,966.40
2018-09-18T09:41:20.284Z,966.31
2018-09-18T09:42:20.305Z,966.30
2018-09-18T09:43:20.320Z,966.15
2018-09-18T09:44:20.337Z,965.43
2018-09-18T09:45:20.358Z,964.77
2018-09-18T09:46:20.435Z,964.76
2018-09-18T09:47:20.400Z,964.73
2018-09-18T09:48:20.438Z,964.67
2018-09-18T09:49:20.436Z,964.63
2018-09-18T09:50:20.451Z,964.71
2018-09-18T09:51:20.555Z,964.69
2018-09-18T09:52:20.485Z,964.75
2018-09-18T09:53:20.501Z,964.71
2018-09-18T09:54:20.520Z,964.69
2018-09-18T09:55:20.544Z,964.53
2018-09-18T09:56:20.554Z,964.56
2018-09-18T09:57:20.570Z,964.59
2018-09-18T09:58:20.618Z,964.56
2018-09-18T09:59:20.619Z,964.52
2018-09-18T10:00:20.615Z,964.55
2018-09-18T10:01:20.628Z,964.47
2018-09-18T10:02:20.677Z,964.50
2018-09-18T10:03:20.677Z,964.48
2018-09-18T10:04:20.678Z,964.41
2018-09-18T10:05:20.728Z,964.44
2018-09-18T10:06:20.694Z,964.45
2018-09-18T10:07:20.704Z,964.43
2018-09-18T10:08:20.719Z,964.43
2018-09-18T10:09:20.749Z,964.42
2018-09-18T10:10:20.822Z,964.35
2018-09-18T10:11:20.806Z,964.44
2018-09-18T10:12:20.833Z,964.45
2018-09-18T10:13:20.789Z,964.44
2018-09-18T10:14:20.788Z,964.49
2018-09-18T10:15:20.795Z,964.41
2018-09-18T10:16:20.858Z,964.39
2018-09-18T10:17:20.847Z,964.43
2018-09-18T10:18:20.909Z,964.39
2018-09-18T10:19:20.863Z,964.47
2018-09-18T10:20:20.876Z,964.33
2018-09-18T10:21:20.860Z,964.36
2018-09-18T10:22:20.864Z,964.36
2018-09-18T10:23:20.874Z,964.38
2018-09-18T10:24:20.927Z,964.38
2018-09-18T10:25:20.917Z,964.40
2018-09-18T10:26:21.066Z,964.39
2018-09-18T10:27:20.937Z,964.32
2018-09-18T10:28:20.923Z,964.36
2018-09-18T10:29:20.948Z,964.43
2018-09-18T10:30:20.941Z,964.35
2018-09-18T10:31:20.981Z,964.37
2018-09-18T10:32:20.965Z,964.39
2018-09-18T10:33:21.024Z,964.37
2018-09-18T10:34:20.990Z,964.34
2018-09-18T10:35:21.016Z,964.35
2018-09-18T10:36:21.001Z,964.33
2018-09-18T10:37:21.010Z,964.32
2018-09-18T10:38:21.020Z,964.36
2018-09-18T10:39:21.158Z,964.30
2018-09-18T10:40:21.039Z,964.30
2018-09-18T10:41:21.151Z,964.28
2018-09-18T10:42:21.085Z,964.31
2018-09-18T10:43:21.063Z,964.31
2018-09-18T10:44:21.097Z,964.31
2018-09-18T10:45:21.092Z,964.35
2018-09-18T10:46:21.087Z,964.25
2018-09-18T10:47:21.105Z,964.27
2018-09-18T10:48:21.111Z,964.26
2018-09-18T10:49:21.145Z,964.25
2018-09-18T10:50:21.163Z,964.16
2018-09-18T10:51:21.135Z,964.18
2018-09-18T10:52:21.264Z,964.15
2018-09-18T10:53:21.152Z,964.14
2018-09-18T10:54:21.267Z,964.18
2018-09-18T10:55:21.189Z,964.15
2018-09-18T10:56:21.237Z,964.12
2018-09-18T10:57:21.192Z,964.16
2018-09-18T10:58:21.270Z,964.15
2018-09-18T10:59:21.205Z,964.13
2018-09-18T11:00:21.232Z,964.04
2018-09-18T11:01:21.254Z,964.03
2018-09-18T11:02:21.375Z,964.14
2018-09-18T11:03:21.258Z,964.08
2018-09-18T11:04:21.292Z,964.09
2018-09-18T11:05:21.334Z,964.03
2018-09-18T11:06:21.278Z,964.04
2018-09-18T11:07:21.309Z,964.03
2018-09-18T11:08:21.589Z,964.02
2018-09-18T11:11:24.484Z,964.05
2018-09-18T11:12:17.538Z,964.04
2018-09-18T11:14:10.408Z,964.02
2018-09-18T11:15:07.675Z,964.05
2018-09-18T11:17:01.327Z,964.04
2018-09-18T11:18:01.884Z,963.98
2018-09-18T11:19:54.337Z,964.02
2018-09-18T11:20:54.878Z,963.98
2018-09-18T11:21:55.169Z,963.95
2018-09-18T11:22:54.421Z,963.93
2018-09-18T11:23:54.296Z,963.98
2018-09-18T11:24:55.995Z,963.96
2018-09-18T11:25:54.500Z,963.96
2018-09-18T11:26:53.919Z,963.93
2018-09-18T11:27:53.902Z,964.02
2018-09-18T11:28:53.896Z,963.96
2018-09-18T11:29:56.792Z,963.92
2018-09-18T11:30:53.920Z,963.90
2018-09-18T11:31:53.935Z,963.95
2018-09-18T11:32:54.084Z,963.92
2018-09-18T11:33:53.931Z,963.89
2018-09-18T11:34:53.953Z,963.84
2018-09-18T11:35:53.952Z,963.83
2018-09-18T11:36:55.772Z,963.79
2018-09-18T11:37:53.968Z,963.85
2018-09-18T11:38:53.977Z,963.85
2018-09-18T11:39:53.984Z,963.84
2018-09-18T11:40:54.009Z,963.82
2018-09-18T11:41:55.775Z,963.80
2018-09-18T11:43:01.602Z,963.83
2018-09-18T11:44:47.940Z,963.79
2018-09-18T11:45:48.030Z,963.75
2018-09-18T11:47:42.358Z,963.83
2018-09-18T11:48:41.608Z,963.82
2018-09-18T11:50:34.872Z,963.81
2018-09-18T11:51:34.272Z,963.82
2018-09-18T11:53:27.830Z,963.83
2018-09-18T11:54:28.182Z,963.86
2018-09-18T11:56:22.304Z,963.83
2018-09-18T11:57:22.842Z,963.83
2018-09-18T11:59:14.114Z,963.88
2018-09-18T12:00:13.835Z,963.78
2018-09-18T12:02:07.077Z,963.76
2018-09-18T12:03:07.609Z,963.74
2018-09-18T12:05:01.635Z,963.67
2018-09-18T12:06:01.176Z,963.68
2018-09-18T12:07:58.318Z,963.66
2018-09-18T12:08:55.520Z,963.65
2018-09-18T12:10:47.989Z,963.62
2018-09-18T12:11:47.884Z,963.65
2018-09-18T12:12:47.758Z,963.61
2018-09-18T12:13:49.081Z,963.71
2018-09-18T12:14:47.894Z,963.76
2018-09-18T12:15:49.673Z,963.69
2018-09-18T12:16:47.695Z,963.70
2018-09-18T12:17:47.726Z,963.71
2018-09-18T12:18:47.764Z,963.68
2018-09-18T12:19:49.657Z,963.73
2018-09-18T12:20:47.977Z,963.67
2018-09-18T12:21:47.731Z,963.68
2018-09-18T12:22:47.766Z,963.68
2018-09-18T12:23:47.757Z,963.62
2018-09-18T12:24:47.788Z,963.55
2018-09-18T12:25:47.801Z,963.61
2018-09-18T12:26:47.783Z,963.57
2018-09-18T12:27:47.972Z,963.61
2018-09-18T12:28:49.692Z,963.55
2018-09-18T12:29:47.893Z,963.57
2018-09-18T12:30:49.690Z,963.51
2018-09-18T12:31:47.841Z,963.62
2018-09-18T12:32:47.821Z,963.57
2018-09-18T12:33:47.863Z,963.57
2018-09-18T12:34:49.663Z,963.52
2018-09-18T12:35:47.946Z,963.52
2018-09-18T12:36:50.739Z,963.53
2018-09-18T12:37:47.903Z,963.52
2018-09-18T12:38:47.874Z,963.49
2018-09-18T12:39:47.885Z,963.48
2018-09-18T12:40:47.889Z,963.54
2018-09-18T12:41:47.928Z,963.50
2018-09-18T12:42:47.944Z,963.54
2018-09-18T12:43:47.919Z,963.46
2018-09-18T12:44:47.932Z,963.51
2018-09-18T12:45:47.929Z,963.45
2018-09-18T12:46:47.968Z,963.44
2018-09-18T12:47:49.679Z,963.45
2018-09-18T12:48:49.731Z,963.48
2018-09-18T12:49:48.088Z,963.37
2018-09-18T12:50:49.749Z,963.44
2018-09-18T12:51:47.982Z,963.37
2018-09-18T12:52:49.694Z,963.39
2018-09-18T12:53:48.099Z,963.41
2018-09-18T12:54:48.023Z,963.47
2018-09-18T12:55:48.034Z,963.39
2018-09-18T12:56:48.090Z,963.44
2018-09-18T12:57:48.076Z,963.49
2018-09-18T12:58:48.108Z,963.39
2018-09-18T12:59:48.083Z,963.33
2018-09-18T13:00:48.052Z,963.33
2018-09-18T13:01:48.082Z,963.37
2018-09-18T13:02:48.072Z,963.30
2018-09-18T13:03:48.126Z,963.25
2018-09-18T13:04:48.100Z,963.23
2018-09-18T13:05:48.127Z,963.18
2018-09-18T13:06:48.272Z,963.20
2018-09-18T13:07:48.168Z,963.17
2018-09-18T13:08:50.965Z,963.15
2018-09-18T13:11:36.221Z,963.18
2018-09-18T13:14:03.939Z,963.17
2018-09-18T13:15:03.834Z,963.26
2018-09-18T13:16:57.645Z,963.21
2018-09-18T13:17:57.298Z,963.18
2018-09-18T13:19:51.326Z,963.16
2018-09-18T13:20:49.480Z,963.12
2018-09-18T13:22:43.204Z,963.13
2018-09-18T13:23:44.054Z,963.06
2018-09-18T13:25:36.965Z,963.09
2018-09-18T13:26:36.517Z,963.01
2018-09-18T13:28:29.526Z,963.07
2018-09-18T13:29:29.940Z,963.06
2018-09-18T13:31:22.847Z,963.05
2018-09-18T13:32:21.893Z,963.08
2018-09-18T13:33:21.792Z,963.01
2018-09-18T13:34:22.435Z,963.01
2018-09-18T13:35:21.904Z,963.03
2018-09-18T13:36:22.483Z,962.99
2018-09-18T13:37:22.786Z,963.01
2018-09-18T13:38:23.268Z,962.98
2018-09-18T13:39:22.439Z,962.99
2018-09-18T13:40:21.815Z,962.97
2018-09-18T13:41:21.797Z,962.97
2018-09-18T13:42:22.460Z,962.95
2018-09-18T13:43:22.407Z,962.96
2018-09-18T13:44:21.916Z,962.92
2018-09-18T13:45:21.986Z,962.97
2018-09-18T13:46:22.501Z,962.97
2018-09-18T13:47:24.408Z,962.95
2018-09-18T13:48:22.010Z,962.93
2018-09-18T13:49:22.449Z,962.97
2018-09-18T13:50:22.870Z,962.95
2018-09-18T13:51:22.495Z,962.95
2018-09-18T13:52:22.575Z,962.96
2018-09-18T13:53:21.921Z,962.96
2018-09-18T13:54:22.411Z,963.00
2018-09-18T13:55:21.673Z,962.98
2018-09-18T13:56:21.667Z,962.96
2018-09-18T13:57:21.677Z,963.00
2018-09-18T13:58:21.602Z,962.93
2018-09-18T13:59:21.603Z,962.96
2018-09-18T14:00:21.616Z,962.89
2018-09-18T14:01:21.712Z,962.90
2018-09-18T14:02:21.697Z,962.89
2018-09-18T14:03:21.640Z,962.88
2018-09-18T14:04:21.664Z,962.84
2018-09-18T14:05:21.652Z,962.84
2018-09-18T14:06:21.689Z,962.84
2018-09-18T14:07:21.704Z,962.82
2018-09-18T14:08:21.698Z,962.84
2018-09-18T14:09:21.773Z,962.84
2018-09-18T14:10:21.701Z,962.77
2018-09-18T14:11:21.729Z,962.79
2018-09-18T14:12:21.731Z,962.78
2018-09-18T14:13:21.768Z,962.77
2018-09-18T14:14:21.799Z,962.81
2018-09-18T14:15:21.854Z,962.78
2018-09-18T14:16:21.741Z,962.82
2018-09-18T14:17:21.750Z,962.74
2018-09-18T14:18:21.759Z,962.77
2018-09-18T14:19:21.763Z,962.78
2018-09-18T14:20:21.884Z,962.75
2018-09-18T14:21:21.780Z,962.73
2018-09-18T14:22:21.788Z,962.70
2018-09-18T14:23:21.794Z,962.68
2018-09-18T14:24:21.802Z,962.71
2018-09-18T14:25:21.840Z,962.67
2018-09-18T14:26:21.828Z,962.70
2018-09-18T14:27:21.849Z,962.72
2018-09-18T14:28:21.862Z,962.72
2018-09-18T14:29:21.845Z,962.73
2018-09-18T14:30:21.849Z,962.73
2018-09-18T14:31:21.897Z,962.72
2018-09-18T14:32:21.999Z,962.74
2018-09-18T14:33:21.899Z,962.74
2018-09-18T14:34:21.940Z,962.76
2018-09-18T14:35:29.920Z,962.74
2018-09-18T14:37:16.312Z,962.77
2018-09-18T14:38:16.307Z,962.74
2018-09-18T14:39:15.293Z,962.72
2018-09-18T14:40:16.894Z,962.79
2018-09-18T14:41:15.840Z,962.78
2018-09-18T14:42:15.314Z,962.77
2018-09-18T14:43:16.319Z,962.73
2018-09-18T14:44:15.803Z,962.79
2018-09-18T14:45:17.007Z,962.79
2018-09-18T14:46:15.873Z,962.71
2018-09-18T14:47:15.892Z,962.68
2018-09-18T14:48:16.435Z,962.70
2018-09-18T14:49:15.395Z,962.68
2018-09-18T14:50:16.957Z,962.71
2018-09-18T14:51:16.345Z,962.67
2018-09-18T14:52:15.464Z,962.70
2018-09-18T14:55:00.654Z,962.71
2018-09-18T14:56:01.539Z,962.71
2018-09-18T14:57:54.406Z,962.68
2018-09-18T14:58:54.038Z,962.69
2018-09-18T15:01:19.529Z,962.65
2018-09-18T15:03:33.106Z,962.66
2018-09-18T15:05:59.713Z,962.68
2018-09-18T15:09:54.148Z,962.62
2018-09-18T15:10:52.891Z,962.67
2018-09-18T15:15:18.642Z,962.64
2018-09-18T15:16:12.677Z,962.66
2018-09-18T15:18:41.168Z,962.63
2018-09-18T15:21:04.735Z,962.63
2018-09-18T15:22:04.309Z,962.67
2018-09-18T15:24:01.148Z,962.62
2018-09-18T15:24:59.652Z,962.66
2018-09-18T15:25:59.659Z,962.70
2018-09-18T15:26:59.636Z,962.67
2018-09-18T15:27:59.677Z,962.66
2018-09-18T15:29:00.607Z,962.70
2018-09-18T15:29:59.682Z,962.68
2018-09-18T15:30:59.695Z,962.73
2018-09-18T15:31:59.676Z,962.70
2018-09-18T15:33:00.170Z,962.72
2018-09-18T15:33:59.725Z,962.72
2018-09-18T15:35:00.178Z,962.68
2018-09-18T15:35:59.159Z,962.66
2018-09-18T15:36:59.651Z,962.70
2018-09-18T15:37:59.140Z,962.67
2018-09-18T15:38:59.206Z,962.71
2018-09-18T15:39:59.701Z,962.70
2018-09-18T15:40:58.695Z,962.66
2018-09-18T15:42:00.845Z,962.64
2018-09-18T15:42:59.682Z,962.67
2018-09-18T15:43:59.698Z,962.66
2018-09-18T15:44:59.290Z,962.67
2018-09-18T16:53:17.875Z,962.56
2018-09-18T16:54:24.490Z,962.57
2018-09-18T16:56:10.675Z,962.60
2018-09-18T16:57:11.167Z,962.56
2018-09-18T16:59:07.043Z,962.55
2018-09-18T17:00:04.736Z,962.59
2018-09-18T17:01:03.691Z,962.59
2018-09-18T17:02:05.097Z,962.61
2018-09-18T17:03:03.003Z,962.67
2018-09-18T17:04:02.692Z,962.67
2018-09-18T17:05:02.673Z,962.65
2018-09-18T17:06:02.679Z,962.67
2018-09-18T17:07:02.678Z,962.71
2018-09-18T17:08:02.684Z,962.70
2018-09-18T17:09:02.718Z,962.70
2018-09-18T17:10:02.699Z,962.69
2018-09-18T17:11:02.697Z,962.73
2018-09-18T17:12:02.719Z,962.74
2018-09-18T17:13:02.709Z,962.78
2018-09-18T17:14:02.719Z,962.75
2018-09-18T17:15:02.863Z,962.72
2018-09-18T17:16:03.089Z,962.79
2018-09-18T17:17:02.763Z,962.81
2018-09-18T17:18:03.116Z,962.80
2018-09-18T17:19:02.863Z,962.79
2018-09-18T17:20:03.059Z,962.77
2018-09-18T17:21:02.800Z,962.81
2018-09-18T17:22:02.903Z,962.83
2018-09-18T17:23:03.791Z,962.86
2018-09-18T17:24:03.001Z,962.84
2018-09-18T17:25:02.973Z,962.86
2018-09-18T17:26:03.748Z,962.83
2018-09-18T17:27:04.030Z,962.89
2018-09-18T17:28:04.713Z,962.89
2018-09-18T17:29:02.968Z,962.88
2018-09-18T17:30:02.864Z,962.85
2018-09-18T17:31:02.832Z,962.85
2018-09-18T17:32:02.816Z,962.88
2018-09-18T17:33:02.884Z,962.83
2018-09-18T17:34:02.828Z,962.83
2018-09-18T17:35:02.833Z,962.82
2018-09-18T17:36:02.839Z,962.85
2018-09-18T17:37:02.866Z,962.82
2018-09-18T17:38:02.860Z,962.86
2018-09-18T17:39:02.851Z,962.85
2018-09-18T17:40:02.862Z,962.88
2018-09-18T17:41:02.860Z,962.89
2018-09-18T17:42:02.870Z,962.86
2018-09-18T17:43:02.875Z,962.89
2018-09-18T17:44:02.923Z,962.94
2018-09-18T17:45:02.909Z,962.93
2018-09-18T17:46:02.913Z,962.91
2018-09-18T17:47:02.912Z,962.92
2018-09-18T17:48:02.910Z,962.93
2018-09-18T17:49:02.931Z,962.95
2018-09-18T17:50:03.061Z,962.97
2018-09-18T17:51:02.938Z,962.98
2018-09-18T17:52:04.890Z,963.00
2018-09-18T17:53:13.987Z,963.00
2018-09-18T17:54:04.477Z,962.98
2018-09-18T17:55:04.584Z,962.98
2018-09-18T17:56:04.473Z,962.98
2018-09-18T17:57:06.885Z,962.93
2018-09-18T17:58:03.407Z,962.97
2018-09-18T17:59:04.076Z,962.96
2018-09-18T18:00:03.966Z,962.94
2018-09-18T18:01:04.471Z,962.99
2018-09-18T18:02:05.048Z,963.00
2018-09-18T18:03:03.483Z,963.02
2018-09-18T18:04:04.007Z,963.05
2018-09-18T18:05:05.094Z,963.03
2018-09-18T18:06:04.100Z,963.06
2018-09-18T18:07:04.523Z,963.03
2018-09-18T18:08:04.054Z,963.03
2018-09-18T18:09:03.499Z,963.03
2018-09-18T18:10:03.471Z,963.00
2018-09-18T18:11:03.457Z,963.01
2018-09-18T18:12:04.606Z,963.03
2018-09-18T18:13:03.517Z,963.03
2018-09-18T18:14:03.389Z,963.06
2018-09-18T18:15:03.518Z,963.09
2018-09-18T18:16:04.067Z,963.11
2018-09-18T18:17:04.572Z,963.10
2018-09-18T18:18:04.026Z,963.13
2018-09-18T18:19:04.076Z,963.13
2018-09-18T18:20:04.094Z,963.14
2018-09-18T18:21:04.076Z,963.12
2018-09-18T18:22:03.530Z,963.19
2018-09-18T18:23:03.910Z,963.21
2018-09-18T18:24:03.092Z,963.23
2018-09-18T18:25:03.080Z,963.24
2018-09-18T18:26:03.098Z,963.25
2018-09-18T18:27:03.099Z,963.24
2018-09-18T18:28:03.095Z,963.29
2018-09-18T18:29:06.472Z,963.28
2018-09-18T18:30:03.109Z,963.32
2018-09-18T18:31:03.132Z,963.29
2018-09-18T18:32:04.709Z,963.28
2018-09-18T18:33:03.141Z,963.29
2018-09-18T18:34:03.137Z,963.32
2018-09-18T18:35:03.132Z,963.29
2018-09-18T18:36:05.685Z,963.30
2018-09-18T18:37:03.541Z,963.29
2018-09-18T18:38:07.437Z,963.34
2018-09-18T18:39:06.182Z,963.30
2018-09-18T18:40:04.119Z,963.32
2018-09-18T18:41:03.242Z,963.33
2018-09-18T18:42:03.188Z,963.32
2018-09-18T18:43:03.163Z,963.32
2018-09-18T18:44:03.214Z,963.30
2018-09-18T18:45:03.218Z,963.35
2018-09-18T18:46:11.120Z,963.32
2018-09-18T18:47:57.262Z,963.35
2018-09-18T18:48:56.759Z,963.35
2018-09-18T18:50:50.313Z,963.37
2018-09-18T18:51:50.265Z,963.34
2018-09-18T18:53:43.741Z,963.37
2018-09-18T18:54:43.875Z,963.38
2018-09-18T18:56:38.291Z,963.39
2018-09-18T18:57:36.999Z,963.41
2018-09-18T18:59:30.661Z,963.39
2018-09-18T19:00:30.552Z,963.37
2018-09-18T19:02:23.540Z,963.41
2018-09-18T19:03:23.394Z,963.39
2018-09-18T19:05:16.329Z,963.43
2018-09-18T19:06:16.575Z,963.44
2018-09-18T19:08:09.460Z,963.47
2018-09-18T19:09:10.500Z,963.45
2018-09-18T19:12:09.669Z,963.52
2018-09-18T19:13:09.619Z,963.52
2018-09-18T19:15:04.132Z,963.54
2018-09-18T19:16:03.036Z,963.55
2018-09-18T19:17:55.303Z,963.54
2018-09-18T19:18:55.174Z,963.53
2018-09-18T19:20:48.162Z,963.56
2018-09-18T19:21:47.994Z,963.62
2018-09-18T19:23:41.691Z,963.67
2018-09-18T19:24:41.554Z,963.66
2018-09-18T19:26:34.802Z,963.73
2018-09-18T19:27:35.557Z,963.70
2018-09-18T19:29:28.799Z,963.69
2018-09-18T19:30:27.986Z,963.68
2018-09-18T19:32:22.325Z,963.77
2018-09-18T19:33:28.642Z,963.76
2018-09-18T19:35:14.760Z,963.78
2018-09-18T19:36:15.160Z,963.71
2018-09-18T19:38:08.223Z,963.74
2018-09-18T19:39:07.815Z,963.71
2018-09-18T19:41:01.725Z,963.73
2018-09-18T19:42:00.706Z,963.78
2018-09-18T19:43:53.070Z,963.72
2018-09-18T19:44:53.599Z,963.71
2018-09-18T19:46:45.970Z,963.74
2018-09-18T19:47:46.495Z,963.75
2018-09-18T19:49:39.603Z,963.78
2018-09-18T19:50:39.299Z,963.78
2018-09-18T19:52:32.590Z,963.84
2018-09-18T19:53:33.254Z,963.85
2018-09-18T19:55:25.126Z,963.82
2018-09-18T19:56:26.172Z,963.82
2018-09-18T19:58:18.555Z,963.81
2018-09-18T19:59:18.525Z,963.80
2018-09-18T20:01:11.385Z,963.84
2018-09-18T20:02:11.954Z,963.84
2018-09-18T20:04:04.341Z,963.81
2018-09-18T20:05:06.158Z,963.84
2018-09-18T20:06:59.663Z,963.84
2018-09-18T20:08:00.613Z,963.83
2018-09-18T20:09:51.062Z,963.82
2018-09-18T20:10:51.190Z,963.83
2018-09-18T20:12:44.833Z,963.84
2018-09-18T20:13:44.618Z,963.83
2018-09-18T20:15:38.421Z,963.81
2018-09-18T20:16:38.688Z,963.84
2018-09-18T20:17:39.100Z,963.82
2018-09-18T20:18:37.800Z,963.81
2018-09-18T20:19:37.926Z,963.84
2018-09-18T20:20:37.642Z,963.83
2018-09-18T20:21:37.695Z,963.84
2018-09-18T20:22:37.652Z,963.85
2018-09-18T20:23:37.687Z,963.86
2018-09-18T20:24:37.687Z,963.83
2018-09-18T20:25:37.747Z,963.81
2018-09-18T20:26:37.849Z,963.84
2018-09-18T20:27:37.678Z,963.80